Terminal Aerodrome Forecast
Issued by NWS Cleveland, OH

Home | Current Version | Previous Version | Graphics & Text | Print | Product List | Glossary On
Versions: 1 2 3 4 5 6 7 8 9 10 11 12 13 14 15 16 17 18 19 20 21 22 23 24 25 26 27
000
FTUS41 KCLE 241700
TAFCLE
TAF
KCLE 241725Z 2418/2524 21017G25KT P6SM OVC140
     FM250000 24015G22KT 4SM -SN SCT020 BKN035
     FM250600 23010KT 2SM -SN BR BKN010 OVC020
     FM251100 30008KT P6SM OVC025
     FM251300 29007KT P6SM BKN250
     FM252000 VRB03KT P6SM BKN100=

USA.gov is the U.S. government's official web portal to all federal, state and local government web resources and services.